createdAt,value
2022-12-31T00:02:18.229Z,1.43
2022-12-31T00:04:44.970Z,1.00
2022-12-31T00:07:11.526Z,2.00
2022-12-31T00:09:38.106Z,2.10
2022-12-31T00:12:04.883Z,1.33
2022-12-31T00:14:31.555Z,1.33
2022-12-31T00:16:58.179Z,1.60
2022-12-31T00:19:24.739Z,1.07
2022-12-31T00:21:51.278Z,1.83
2022-12-31T00:24:17.836Z,2.17
2022-12-31T00:26:44.409Z,1.10
2022-12-31T00:29:10.968Z,1.40
2022-12-31T00:31:38.812Z,1.30
2022-12-31T00:34:06.084Z,1.30
2022-12-31T00:36:36.719Z,1.97
2022-12-31T00:39:05.458Z,1.87
2022-12-31T00:41:32.187Z,1.20
2022-12-31T00:43:59.451Z,1.30
2022-12-31T00:46:26.786Z,1.20
2022-12-31T00:48:53.688Z,2.47
2022-12-31T00:51:22.906Z,1.20
2022-12-31T00:53:49.971Z,0.90
2022-12-31T00:56:19.614Z,1.23
2022-12-31T00:58:46.800Z,1.97
2022-12-31T01:01:20.833Z,1.70
2022-12-31T01:03:50.241Z,1.30
2022-12-31T01:06:17.372Z,1.10
2022-12-31T01:08:44.392Z,1.00
2022-12-31T01:11:28.907Z,1.47
2022-12-31T01:14:02.918Z,1.00
2022-12-31T01:16:32.603Z,1.47
2022-12-31T01:19:01.655Z,1.03
2022-12-31T01:21:30.629Z,1.20
2022-12-31T01:23:58.649Z,1.60
2022-12-31T01:26:25.230Z,1.33
2022-12-31T01:28:51.779Z,1.33
2022-12-31T01:31:22.411Z,0.80
2022-12-31T01:33:50.029Z,1.20
2022-12-31T01:36:25.281Z,1.03
2022-12-31T01:38:53.416Z,1.00
2022-12-31T01:41:23.243Z,1.57
2022-12-31T01:43:54.432Z,1.07
2022-12-31T01:46:43.753Z,1.20
2022-12-31T01:49:38.575Z,1.20
2022-12-31T01:52:22.475Z,1.30
2022-12-31T01:54:56.813Z,0.93
2022-12-31T01:57:24.857Z,1.77
2022-12-31T01:59:53.131Z,1.47
2022-12-31T02:02:19.847Z,1.20
2022-12-31T02:04:47.701Z,1.23
2022-12-31T02:07:14.314Z,1.50
2022-12-31T02:09:42.189Z,2.23
2022-12-31T02:12:09.845Z,1.20
2022-12-31T02:14:51.796Z,1.33
2022-12-31T02:18:04.724Z,1.43
2022-12-31T02:20:49.079Z,1.43
2022-12-31T02:23:25.162Z,2.23
2022-12-31T02:26:17.558Z,1.50
2022-12-31T02:29:02.623Z,2.27
2022-12-31T02:32:05.905Z,1.43
2022-12-31T02:34:55.845Z,1.40
2022-12-31T02:37:24.888Z,2.47
2022-12-31T02:39:51.765Z,1.47
2022-12-31T02:42:18.396Z,1.33
2022-12-31T02:44:44.951Z,1.00
2022-12-31T02:47:40.090Z,1.30
2022-12-31T02:50:22.261Z,2.50
2022-12-31T02:53:12.588Z,2.03
2022-12-31T02:55:55.262Z,1.60
2022-12-31T02:58:56.272Z,1.73
2022-12-31T03:01:51.972Z,4.87
2022-12-31T03:04:31.990Z,1.43
2022-12-31T03:07:26.222Z,2.40
2022-12-31T03:09:53.730Z,1.40
2022-12-31T03:12:41.919Z,2.40
2022-12-31T03:15:20.339Z,1.33
2022-12-31T03:17:56.821Z,1.33
2022-12-31T03:20:51.060Z,1.40
2022-12-31T03:23:23.970Z,1.47
2022-12-31T03:25:50.924Z,0.97
2022-12-31T03:28:20.579Z,1.30
2022-12-31T03:30:53.125Z,1.47
2022-12-31T03:33:20.542Z,2.53
2022-12-31T03:35:48.797Z,1.97
2022-12-31T03:38:17.250Z,1.30
2022-12-31T03:40:46.617Z,1.13
2022-12-31T03:43:13.480Z,1.47
2022-12-31T03:45:40.173Z,2.80
2022-12-31T03:48:08.574Z,1.40
2022-12-31T03:50:35.667Z,1.20
2022-12-31T03:53:02.748Z,1.30
2022-12-31T03:55:29.340Z,1.30
2022-12-31T03:57:55.932Z,1.17
2022-12-31T04:00:22.930Z,1.57
2022-12-31T04:02:50.842Z,1.20
2022-12-31T04:05:19.454Z,1.20
2022-12-31T04:07:46.536Z,2.23
2022-12-31T04:10:15.144Z,2.20
2022-12-31T04:12:42.018Z,1.30
2022-12-31T04:15:10.226Z,1.03
2022-12-31T04:17:36.926Z,1.77
2022-12-31T04:20:04.340Z,1.40
2022-12-31T04:22:30.910Z,1.27
2022-12-31T04:24:57.680Z,2.87
2022-12-31T04:27:24.247Z,1.13
2022-12-31T04:29:50.786Z,1.37
2022-12-31T04:32:17.385Z,1.97
2022-12-31T04:34:43.998Z,1.97
2022-12-31T04:37:10.550Z,3.83
2022-12-31T04:39:37.134Z,1.00
2022-12-31T04:42:03.774Z,1.53
2022-12-31T04:44:31.592Z,1.23
2022-12-31T04:46:58.264Z,1.90
2022-12-31T04:49:24.819Z,0.90
2022-12-31T04:51:51.400Z,1.17
2022-12-31T04:54:17.952Z,1.00
2022-12-31T04:56:44.518Z,1.10
2022-12-31T04:59:11.698Z,2.40
2022-12-31T05:01:39.374Z,1.27
2022-12-31T05:04:06.447Z,1.10
2022-12-31T05:06:33.111Z,1.52
2022-12-31T05:08:59.814Z,1.23
2022-12-31T05:11:26.469Z,1.00
2022-12-31T05:13:53.036Z,2.40
2022-12-31T05:16:19.707Z,0.90
2022-12-31T05:18:46.339Z,0.90
2022-12-31T05:21:21.045Z,1.00
2022-12-31T05:23:48.175Z,0.83
2022-12-31T05:26:15.264Z,1.33
2022-12-31T05:28:41.793Z,0.90
2022-12-31T05:31:09.332Z,1.20
2022-12-31T05:33:36.021Z,1.10
2022-12-31T05:36:02.703Z,1.10
2022-12-31T05:38:29.279Z,2.17
2022-12-31T05:41:07.281Z,1.20
2022-12-31T05:43:34.446Z,1.10
2022-12-31T05:46:02.301Z,1.83
2022-12-31T05:48:29.084Z,1.40
2022-12-31T05:50:55.976Z,1.20
2022-12-31T05:53:22.801Z,1.40
2022-12-31T05:55:49.428Z,1.47
2022-12-31T05:58:16.353Z,1.73
2022-12-31T06:00:43.078Z,2.40
2022-12-31T06:03:10.226Z,2.77
2022-12-31T06:05:40.991Z,1.07
2022-12-31T06:08:07.574Z,1.53
2022-12-31T06:10:34.244Z,1.20
2022-12-31T06:13:00.856Z,0.90
2022-12-31T06:15:27.429Z,1.67
2022-12-31T06:17:54.057Z,1.17
2022-12-31T06:20:20.818Z,1.17
2022-12-31T06:22:47.523Z,1.07
2022-12-31T06:25:14.157Z,1.17
2022-12-31T06:27:40.765Z,1.50
2022-12-31T06:30:08.220Z,1.13
2022-12-31T06:32:35.044Z,2.07
2022-12-31T06:35:01.673Z,1.53
2022-12-31T06:37:28.237Z,1.30
2022-12-31T06:39:54.801Z,1.30
2022-12-31T06:42:21.518Z,1.10
2022-12-31T06:44:48.074Z,1.30
2022-12-31T06:47:14.619Z,1.20
2022-12-31T06:49:41.177Z,1.83
2022-12-31T06:52:08.259Z,1.53
2022-12-31T06:54:35.523Z,1.50
2022-12-31T06:57:02.420Z,1.58
2022-12-31T06:59:30.028Z,1.60
2022-12-31T07:02:16.067Z,1.30
2022-12-31T07:05:20.413Z,1.10
2022-12-31T07:08:13.865Z,1.40
2022-12-31T07:11:05.124Z,1.87
2022-12-31T07:13:58.858Z,1.33
2022-12-31T07:16:50.150Z,1.90
2022-12-31T07:19:31.416Z,1.70
2022-12-31T07:21:59.281Z,2.33
2022-12-31T07:24:26.336Z,2.23
2022-12-31T07:27:22.898Z,1.40
2022-12-31T07:30:20.628Z,1.53
2022-12-31T07:33:01.479Z,2.10
2022-12-31T07:35:55.825Z,1.43
2022-12-31T07:38:50.108Z,1.50
2022-12-31T07:41:41.053Z,1.00
2022-12-31T07:44:22.853Z,2.20
2022-12-31T07:46:55.908Z,1.20
2022-12-31T07:49:24.744Z,1.70
2022-12-31T07:51:51.822Z,1.60
2022-12-31T07:54:18.430Z,1.23
2022-12-31T07:56:45.693Z,1.10
2022-12-31T07:59:47.264Z,1.40
2022-12-31T08:02:51.649Z,0.97
2022-12-31T08:05:53.004Z,1.20
2022-12-31T08:08:46.731Z,2.20
2022-12-31T08:11:30.474Z,1.60
2022-12-31T08:14:01.732Z,1.77
2022-12-31T08:16:29.187Z,3.00
2022-12-31T08:18:56.187Z,1.13
2022-12-31T08:21:35.207Z,1.50
2022-12-31T08:24:16.024Z,1.33
2022-12-31T08:26:54.791Z,1.40
2022-12-31T08:29:28.301Z,1.53
2022-12-31T08:31:57.912Z,1.80
2022-12-31T08:34:48.608Z,1.33
2022-12-31T08:37:42.582Z,2.47
2022-12-31T08:40:44.636Z,1.70
2022-12-31T08:43:42.800Z,1.47
2022-12-31T08:46:16.746Z,1.57
2022-12-31T08:48:44.255Z,1.00
2022-12-31T08:51:15.168Z,1.00
2022-12-31T08:53:42.358Z,2.57
2022-12-31T08:56:14.289Z,2.40
2022-12-31T08:58:50.696Z,1.70
2022-12-31T09:01:22.106Z,1.40
2022-12-31T09:03:58.514Z,2.23
2022-12-31T09:06:38.603Z,2.57
2022-12-31T09:09:12.278Z,1.30
2022-12-31T09:11:53.291Z,1.30
2022-12-31T09:14:20.248Z,1.60
2022-12-31T09:16:52.360Z,1.30
2022-12-31T09:19:19.391Z,1.63
2022-12-31T09:21:46.627Z,2.63
2022-12-31T09:24:14.534Z,1.70
2022-12-31T09:26:46.528Z,1.77
2022-12-31T09:29:13.510Z,1.20
2022-12-31T09:31:45.194Z,1.53
2022-12-31T09:34:36.493Z,1.30
2022-12-31T09:37:07.063Z,1.67
2022-12-31T09:39:39.909Z,1.50
2022-12-31T09:42:26.564Z,1.17
2022-12-31T09:45:12.625Z,1.40
2022-12-31T09:47:48.537Z,2.40
2022-12-31T09:50:21.512Z,1.60
2022-12-31T09:52:57.519Z,1.40
2022-12-31T09:55:33.964Z,1.23
2022-12-31T09:58:13.181Z,1.20
2022-12-31T10:01:02.105Z,1.43
2022-12-31T10:03:35.238Z,1.20
2022-12-31T10:06:20.261Z,2.47
2022-12-31T10:09:07.963Z,1.07
2022-12-31T10:11:44.497Z,1.40
2022-12-31T10:14:20.444Z,1.63
2022-12-31T10:17:00.611Z,1.03
2022-12-31T10:19:44.212Z,3.77
2022-12-31T10:22:32.557Z,1.20
2022-12-31T10:25:12.343Z,1.27
2022-12-31T10:27:57.940Z,1.63
2022-12-31T10:30:25.337Z,1.20
2022-12-31T10:32:52.380Z,2.07
2022-12-31T10:35:27.759Z,1.97
2022-12-31T10:38:07.447Z,2.03
2022-12-31T10:40:40.972Z,2.77
2022-12-31T10:43:08.014Z,1.23
2022-12-31T10:45:51.354Z,2.80
2022-12-31T10:48:30.577Z,1.03
2022-12-31T10:51:08.667Z,1.30
2022-12-31T10:53:35.633Z,3.47
2022-12-31T10:56:21.201Z,2.17
2022-12-31T10:59:07.003Z,1.90
2022-12-31T11:01:42.852Z,1.17
2022-12-31T11:04:42.966Z,1.40
2022-12-31T11:07:09.936Z,2.30
2022-12-31T11:09:51.887Z,1.40
2022-12-31T11:12:39.692Z,1.37
2022-12-31T11:15:21.904Z,1.87
2022-12-31T11:17:59.786Z,1.20
2022-12-31T11:20:56.143Z,1.07
2022-12-31T11:23:26.171Z,1.00
2022-12-31T11:26:07.405Z,1.03
2022-12-31T11:28:46.034Z,1.07
2022-12-31T11:31:33.329Z,2.23
2022-12-31T11:34:03.383Z,2.03
2022-12-31T11:37:05.410Z,1.17
2022-12-31T11:39:50.250Z,1.20
2022-12-31T11:42:21.062Z,2.43
2022-12-31T11:45:03.019Z,1.00
2022-12-31T11:47:29.968Z,1.37
2022-12-31T11:50:15.968Z,1.07
2022-12-31T11:52:50.945Z,1.67
2022-12-31T11:55:30.774Z,4.22
2022-12-31T11:58:00.307Z,1.30
2022-12-31T12:00:28.136Z,1.53
2022-12-31T12:03:02.850Z,1.43
2022-12-31T12:05:30.250Z,1.97
2022-12-31T12:07:57.639Z,1.50
2022-12-31T12:10:27.911Z,1.67
2022-12-31T12:13:00.028Z,0.97
2022-12-31T12:15:29.204Z,1.40
2022-12-31T12:18:01.350Z,1.50
2022-12-31T12:20:32.954Z,1.23
2022-12-31T12:23:01.794Z,1.13
2022-12-31T12:25:40.098Z,0.90
2022-12-31T12:28:19.378Z,1.13
2022-12-31T12:30:47.298Z,1.33
2022-12-31T12:33:18.779Z,1.90
2022-12-31T12:35:46.431Z,1.10
2022-12-31T12:38:16.913Z,1.20
2022-12-31T12:40:53.205Z,1.37
2022-12-31T12:43:41.268Z,1.30
2022-12-31T12:46:27.035Z,2.40
2022-12-31T12:48:55.877Z,0.80
2022-12-31T12:51:30.049Z,1.07
2022-12-31T12:54:18.556Z,1.40
2022-12-31T12:57:03.500Z,1.20
2022-12-31T12:59:49.326Z,1.03
2022-12-31T13:02:35.260Z,1.20
2022-12-31T13:05:08.492Z,0.90
2022-12-31T13:07:57.934Z,0.90
2022-12-31T13:10:38.046Z,2.30
2022-12-31T13:13:25.257Z,1.20
2022-12-31T13:16:04.213Z,1.23
2022-12-31T13:18:34.152Z,1.50
2022-12-31T13:21:21.313Z,0.93
2022-12-31T13:23:57.494Z,1.30
2022-12-31T13:26:27.475Z,1.30
2022-12-31T13:28:55.318Z,2.33
2022-12-31T13:31:25.985Z,1.17
2022-12-31T13:33:57.265Z,1.10
2022-12-31T13:36:25.352Z,1.20
2022-12-31T13:38:53.447Z,1.83
2022-12-31T13:41:26.874Z,0.80
2022-12-31T13:44:02.946Z,1.27
2022-12-31T13:46:45.554Z,1.40
2022-12-31T13:49:19.592Z,1.23
2022-12-31T13:51:49.628Z,1.23
2022-12-31T13:54:16.594Z,1.43
2022-12-31T13:56:45.253Z,1.10
2022-12-31T13:59:21.947Z,1.93
2022-12-31T14:01:55.524Z,1.20
2022-12-31T14:04:28.726Z,1.20
2022-12-31T14:06:59.216Z,1.90
2022-12-31T14:09:28.412Z,1.43
2022-12-31T14:12:04.267Z,1.43
2022-12-31T14:14:42.126Z,1.27
2022-12-31T14:17:12.154Z,1.20
2022-12-31T14:19:41.368Z,1.30
2022-12-31T14:22:15.871Z,1.00
2022-12-31T14:24:47.115Z,1.30
2022-12-31T14:27:30.125Z,1.07
2022-12-31T14:30:02.328Z,1.73
2022-12-31T14:32:42.875Z,1.27
2022-12-31T14:35:28.859Z,0.90
2022-12-31T14:38:09.264Z,1.90
2022-12-31T14:40:51.043Z,1.30
2022-12-31T14:43:22.919Z,1.60
2022-12-31T14:45:55.825Z,1.67
2022-12-31T14:48:31.907Z,1.50
2022-12-31T14:51:01.985Z,2.77
2022-12-31T14:53:29.622Z,1.97
2022-12-31T14:55:57.763Z,2.23
2022-12-31T14:58:36.180Z,1.50
2022-12-31T15:01:15.562Z,1.47
2022-12-31T15:03:46.111Z,1.60
2022-12-31T15:06:32.146Z,3.03
2022-12-31T15:09:17.969Z,5.37
2022-12-31T15:11:48.033Z,1.73
2022-12-31T15:14:38.982Z,1.40
2022-12-31T15:17:09.029Z,2.27
2022-12-31T15:19:45.369Z,2.63
2022-12-31T15:22:28.314Z,1.73
2022-12-31T15:24:55.513Z,1.50
2022-12-31T15:27:38.367Z,1.50
2022-12-31T15:30:06.510Z,1.80
2022-12-31T15:32:39.881Z,1.80
2022-12-31T15:35:22.439Z,1.60
2022-12-31T15:38:03.450Z,1.30
2022-12-31T15:40:31.253Z,1.33
2022-12-31T15:43:09.729Z,1.40
2022-12-31T15:45:41.373Z,1.57
2022-12-31T15:48:34.721Z,3.90
2022-12-31T15:51:01.990Z,2.50
2022-12-31T15:53:32.388Z,2.40
2022-12-31T15:56:00.114Z,2.40
2022-12-31T15:58:28.647Z,1.80
2022-12-31T16:01:09.692Z,3.00
2022-12-31T16:03:37.258Z,2.63
2022-12-31T16:06:08.954Z,3.10
2022-12-31T16:08:36.147Z,1.73
2022-12-31T16:11:07.769Z,1.93
2022-12-31T16:13:36.932Z,2.00
2022-12-31T16:16:08.178Z,4.27
2022-12-31T16:18:39.355Z,3.87
2022-12-31T16:21:06.830Z,4.70
2022-12-31T16:23:38.782Z,3.20
2022-12-31T16:26:10.605Z,3.50
2022-12-31T16:28:37.718Z,5.97
2022-12-31T16:31:06.404Z,6.10
2022-12-31T16:33:33.873Z,2.63
2022-12-31T16:36:02.379Z,1.97
2022-12-31T16:38:36.789Z,2.23
2022-12-31T16:41:03.784Z,2.87
2022-12-31T16:43:37.749Z,2.17
2022-12-31T16:46:17.003Z,2.03
2022-12-31T16:49:10.332Z,2.00
2022-12-31T16:51:37.983Z,3.00
2022-12-31T16:54:05.139Z,3.17
2022-12-31T16:56:38.780Z,4.00
2022-12-31T16:59:08.654Z,3.00
2022-12-31T17:01:37.651Z,2.83
2022-12-31T17:04:09.588Z,2.90
2022-12-31T17:06:36.714Z,3.80
2022-12-31T17:09:23.055Z,2.40
2022-12-31T17:11:53.184Z,3.87
2022-12-31T17:14:23.132Z,3.57
2022-12-31T17:17:01.720Z,4.43
2022-12-31T17:19:35.852Z,3.17
2022-12-31T17:22:03.830Z,2.93
2022-12-31T17:24:31.005Z,4.37
2022-12-31T17:27:04.745Z,3.00
2022-12-31T17:29:31.916Z,3.47
2022-12-31T17:32:00.410Z,3.47
2022-12-31T17:34:31.938Z,3.33
2022-12-31T17:36:58.937Z,3.33
2022-12-31T17:39:27.329Z,2.70
2022-12-31T17:41:59.334Z,4.37
2022-12-31T17:44:29.276Z,2.60
2022-12-31T17:46:56.361Z,4.23
2022-12-31T17:49:27.116Z,2.80
2022-12-31T17:51:54.220Z,2.90
2022-12-31T17:54:21.218Z,2.50
2022-12-31T17:56:48.441Z,3.40
2022-12-31T17:59:17.280Z,4.13
2022-12-31T18:01:44.049Z,3.33
2022-12-31T18:04:18.393Z,2.47
2022-12-31T18:06:46.143Z,3.33
2022-12-31T18:09:12.782Z,2.93
2022-12-31T18:11:40.804Z,3.80
2022-12-31T18:14:07.757Z,4.37
2022-12-31T18:16:35.681Z,3.13
2022-12-31T18:19:02.608Z,3.00
2022-12-31T18:21:32.533Z,3.87
2022-12-31T18:26:26.610Z,3.27
2022-12-31T18:28:53.540Z,3.37
2022-12-31T18:31:25.985Z,3.53
2022-12-31T18:33:54.112Z,4.40
2022-12-31T18:36:22.237Z,3.87
2022-12-31T18:38:49.020Z,4.70
2022-12-31T18:41:18.867Z,4.37
2022-12-31T18:43:45.990Z,4.30
2022-12-31T18:46:14.597Z,5.17
2022-12-31T18:48:41.887Z,5.60
2022-12-31T18:51:15.184Z,4.43
2022-12-31T18:53:41.988Z,6.20
2022-12-31T18:56:13.656Z,4.50
2022-12-31T18:58:40.936Z,3.47
2022-12-31T19:01:31.534Z,3.30
2022-12-31T19:04:01.103Z,4.90
2022-12-31T19:06:29.023Z,4.30
2022-12-31T19:08:55.833Z,6.90
2022-12-31T19:11:23.278Z,7.87
2022-12-31T19:13:50.172Z,8.67
2022-12-31T19:16:17.937Z,6.57
2022-12-31T19:18:45.166Z,8.10
2022-12-31T19:21:16.678Z,4.77
2022-12-31T19:23:43.398Z,4.13
2022-12-31T19:26:15.269Z,2.85
2022-12-31T19:28:42.367Z,3.20
2022-12-31T19:31:11.478Z,3.03
2022-12-31T19:33:38.880Z,2.80
2022-12-31T19:36:09.583Z,2.90
2022-12-31T19:38:36.320Z,4.53
2022-12-31T19:41:03.024Z,3.17
2022-12-31T19:43:29.727Z,4.03
2022-12-31T19:45:56.663Z,3.37
2022-12-31T19:48:32.647Z,3.33
2022-12-31T19:51:00.227Z,3.93
2022-12-31T19:53:28.052Z,5.87
2022-12-31T19:55:54.740Z,3.80
2022-12-31T19:58:27.065Z,3.70
2022-12-31T20:01:02.944Z,3.57
2022-12-31T20:03:31.123Z,3.30
2022-12-31T20:06:05.944Z,4.50
2022-12-31T20:08:33.193Z,4.97
2022-12-31T20:11:09.418Z,6.90
2022-12-31T20:13:37.209Z,7.87
2022-12-31T20:16:07.458Z,6.93
2022-12-31T20:18:38.596Z,6.10
2022-12-31T20:21:09.155Z,5.70
2022-12-31T20:23:36.183Z,5.57
2022-12-31T20:26:03.289Z,6.43
2022-12-31T20:28:30.330Z,5.47
2022-12-31T20:30:57.439Z,4.77
2022-12-31T20:33:24.532Z,4.60
2022-12-31T20:35:51.583Z,4.83
2022-12-31T20:38:18.195Z,6.00
2022-12-31T20:40:46.976Z,5.20
2022-12-31T20:43:14.000Z,4.20
2022-12-31T20:45:41.423Z,4.73
2022-12-31T20:48:08.465Z,4.57
2022-12-31T20:50:35.116Z,4.63
2022-12-31T20:53:04.486Z,4.80
2022-12-31T20:55:32.223Z,5.30
2022-12-31T20:58:00.386Z,5.20
2022-12-31T21:00:26.996Z,5.73
2022-12-31T21:03:03.861Z,6.30
2022-12-31T21:05:35.155Z,6.53
2022-12-31T21:08:01.915Z,8.43
2022-12-31T21:10:28.540Z,8.80
2022-12-31T21:12:55.189Z,13.07
2022-12-31T21:15:21.832Z,13.20
2022-12-31T21:17:48.501Z,12.10
2022-12-31T21:20:15.206Z,11.70
2022-12-31T21:22:41.880Z,11.07
2022-12-31T21:25:10.318Z,8.73
2022-12-31T21:27:36.936Z,8.40
2022-12-31T21:30:20.441Z,6.83
2022-12-31T21:32:47.411Z,7.67
2022-12-31T21:35:42.252Z,5.67
2022-12-31T21:38:06.029Z,6.93
2022-12-31T21:40:33.265Z,7.63
2022-12-31T21:42:59.918Z,5.47
2022-12-31T21:45:26.725Z,6.33
2022-12-31T21:48:11.915Z,6.37
2022-12-31T21:50:38.546Z,6.50
2022-12-31T21:53:05.104Z,5.80
2022-12-31T21:55:50.655Z,6.60
2022-12-31T21:58:26.503Z,7.63
2022-12-31T22:01:13.306Z,6.97
2022-12-31T22:03:40.076Z,6.93
2022-12-31T22:06:21.152Z,7.73
2022-12-31T22:08:50.636Z,6.57
2022-12-31T22:11:18.971Z,7.13
2022-12-31T22:13:46.539Z,6.17
2022-12-31T22:16:14.257Z,6.73
2022-12-31T22:18:42.924Z,6.67
2022-12-31T22:21:18.800Z,7.37
2022-12-31T22:23:51.682Z,6.83
2022-12-31T22:26:21.303Z,6.30
2022-12-31T22:28:48.420Z,5.13
2022-12-31T22:31:20.382Z,6.28
2022-12-31T22:33:48.117Z,5.70
2022-12-31T22:36:17.637Z,6.43
2022-12-31T22:38:44.290Z,5.73
2022-12-31T22:41:29.228Z,5.97
2022-12-31T22:44:03.810Z,6.33
2022-12-31T22:46:31.876Z,7.90
2022-12-31T22:49:00.147Z,5.57
2022-12-31T22:51:55.024Z,13.70
2022-12-31T22:54:14.594Z,13.07
2022-12-31T22:56:41.347Z,9.50
2022-12-31T22:59:08.174Z,9.57
2022-12-31T23:01:34.950Z,11.07
2022-12-31T23:04:01.791Z,37.47
2022-12-31T23:06:29.005Z,48.93
2022-12-31T23:09:14.720Z,115.77
2022-12-31T23:11:43.187Z,78.05
2022-12-31T23:14:35.453Z,122.00
2022-12-31T23:17:30.080Z,195.73
2022-12-31T23:20:17.644Z,306.13
2022-12-31T23:23:03.062Z,212.17
2022-12-31T23:25:32.506Z,245.70
2022-12-31T23:27:59.245Z,326.17
2022-12-31T23:30:27.235Z,241.50
2022-12-31T23:32:53.909Z,156.33
2022-12-31T23:35:20.783Z,123.43
2022-12-31T23:37:47.341Z,99.07
2022-12-31T23:40:21.225Z,109.87
2022-12-31T23:42:49.502Z,90.30
2022-12-31T23:45:16.318Z,84.73
2022-12-31T23:47:43.038Z,69.13
2022-12-31T23:50:09.917Z,63.60
2022-12-31T23:52:38.392Z,53.90
2022-12-31T23:55:08.570Z,53.97
2022-12-31T23:57:35.369Z,44.07
